MSC Carolina — 3ECV5 — position and weather

sailwx.info

Track history (hours):
 
Tides and Currents Weather Stations Pressure Air Temp Water Temp Dewpoint Dewpoint Depression Visibility Wind Speed Wind Dir Waves Ship Positions

MSC Carolina

Last reported at 2017-Sep-05 05:30 UTC. Time now 2017-Sep-19 15:34 UTC.
Position N 30°59' E 032°19'.
Warning: this ship's position is 14 days out of date.

Length 275 m; draft 13.3 m.

Type: Ship (hazmat cat B). MMSI: 371475000.

Date/timePositionNaut miles runAvg speedWind from/ knotsBaromVisibWave heightAir tempDewpointWater temp
2017-Sep-05 05:30N 30°59' E 032°19'10 9.1
2017-Sep-05 04:24N 31°09' E 032°19'4 9.3
2017-Sep-05 04:00N 31°12' E 032°20'3 6.9
2017-Sep-05 03:30N 31°16' E 032°21'4 8.1
2017-Sep-05 03:00N 31°20' E 032°23'5 9.8
2017-Sep-05 02:30N 31°24' E 032°24'4 7.1
2017-Sep-05 02:00N 31°25' E 032°20'3 3.7
2017-Sep-05 01:07N 31°24' E 032°17'0 0.0
2017-Sep-05 01:00N 31°24' E 032°17'0 0.0
2017-Sep-05 00:30N 31°24' E 032°17'0 0.0
2017-Sep-05 00:00N 31°24' E 032°17'0 0.0
2017-Sep-04 23:30N 31°24' E 032°17'0 0.0
2017-Sep-04 22:58N 31°24' E 032°17'0 0.0
2017-Sep-04 22:30N 31°24' E 032°17'0 0.0
2017-Sep-04 22:00N 31°24' E 032°17'0 0.1
2017-Sep-04 21:12N 31°24' E 032°17'7512.9
2017-Sep-04 15:22N 32°06' E 031°03'819.7
2017-Sep-04 14:58N 32°10' E 030°55'920.0
2017-Sep-04 14:30N 32°13' E 030°45'1020.2
2017-Sep-04 14:00N 32°17' E 030°34'77419.6
2017-Sep-02 22:27N 37°39' E 016°15'919.9
2017-Sep-02 21:59N 37°44' E 016°04'1519.6
2017-Sep-02 21:12N 37°49' E 015°46'419.6
2017-Sep-02 21:00N 37°51' E 015°42'918.3
2017-Sep-02 20:31N 37°57' E 015°33'1019.3
2017-Sep-02 20:01N 38°07' E 015°35'816.8
2017-Sep-02 19:30N 38°15' E 015°37'613.0
2017-Sep-02 19:00N 38°20' E 015°43'4 8.6
2017-Sep-02 18:30N 38°23' E 015°46'610.9
2017-Sep-02 18:00N 38°27' E 015°52'2 4.4
2017-Sep-02 17:30N 38°27' E 015°54'0 0.0
2017-Sep-02 17:00N 38°27' E 015°54'0 0.0
2017-Sep-02 16:31N 38°27' E 015°54'0 0.0
2017-Sep-02 16:00N 38°27' E 015°54'0 0.0
2017-Sep-02 15:30N 38°27' E 015°54'0 0.0
2017-Sep-02 15:00N 38°27' E 015°54'0 0.0
2017-Sep-02 14:30N 38°27' E 015°54'0 0.0
2017-Sep-02 14:00N 38°27' E 015°54'0 0.0
2017-Sep-02 13:30N 38°27' E 015°54'0 0.0
2017-Sep-02 13:00N 38°27' E 015°54'0 0.0
2017-Sep-02 12:30N 38°27' E 015°54'0 0.0
2017-Sep-02 12:00N 38°27' E 015°54'0 0.0
2017-Sep-02 11:30N 38°27' E 015°54'0 0.0
2017-Sep-02 11:00N 38°27' E 015°54'0 0.0
2017-Sep-02 10:30N 38°27' E 015°54'0 0.0
2017-Sep-02 10:00N 38°27' E 015°54'0 0.0
2017-Sep-02 09:30N 38°27' E 015°54'0 0.0
2017-Sep-02 09:00N 38°27' E 015°54'0 0.0
2017-Sep-02 08:30N 38°27' E 015°54'0 0.0
2017-Sep-02 08:00N 38°27' E 015°54'0 0.0
2017-Sep-02 07:30N 38°27' E 015°54'0 0.0
2017-Sep-02 07:00N 38°27' E 015°54'0 0.0
2017-Sep-02 06:30N 38°27' E 015°54'0 0.0
2017-Sep-02 06:00N 38°27' E 015°54'0 0.0
2017-Sep-02 05:30N 38°27' E 015°54'0 0.0
2017-Sep-02 05:00N 38°27' E 015°54'0 0.0
2017-Sep-02 04:30N 38°27' E 015°54'0 0.0
2017-Sep-02 04:00N 38°27' E 015°54'0 0.0
2017-Sep-02 03:30N 38°27' E 015°54'0 0.0
2017-Sep-02 03:00N 38°27' E 015°54'0 0.0
2017-Sep-02 02:30N 38°27' E 015°54'0 0.0
2017-Sep-02 02:00N 38°27' E 015°54'0 0.0
2017-Sep-02 01:31N 38°27' E 015°54'0 0.0
2017-Sep-02 01:00N 38°27' E 015°54'0 0.0
2017-Sep-02 00:30N 38°27' E 015°54'0 0.0
2017-Sep-02 00:00N 38°27' E 015°54'0 0.0
2017-Sep-01 23:30N 38°27' E 015°54'0 0.0
2017-Sep-01 23:00N 38°27' E 015°54'0 0.0
2017-Sep-01 22:30N 38°27' E 015°54'0 0.0
2017-Sep-01 22:00N 38°27' E 015°54'0 0.0
2017-Sep-01 21:30N 38°27' E 015°54'0 0.0
2017-Sep-01 17:31N 38°27' E 015°54'0 0.1
2017-Sep-01 17:26N 38°27' E 015°54'0 0.0
2017-Sep-01 16:58N 38°27' E 015°54'0 0.0
2017-Sep-01 16:30N 38°27' E 015°54'0 0.0
2017-Sep-01 15:52N 38°27' E 015°54'0 0.0
2017-Sep-01 15:28N 38°27' E 015°54'0 0.0
2017-Sep-01 14:47N 38°27' E 015°54'0 0.0
2017-Sep-01 13:51N 38°27' E 015°54'0 0.0
2017-Sep-01 13:28N 38°27' E 015°54'0 0.0
2017-Sep-01 13:00N 38°27' E 015°54'0 0.0
2017-Sep-01 12:30N 38°27' E 015°54'1 1.3
2017-Sep-01 12:00N 38°27' E 015°54'3 5.9
2017-Sep-01 11:30N 38°28' E 015°50'917.3
2017-Sep-01 11:00N 38°35' E 015°44'1120.1
2017-Sep-01 10:28N 38°44' E 015°36'4 3.1
2017-Sep-01 09:16N 38°47' E 015°33'0 0.1
2017-Sep-01 08:59N 38°47' E 015°33'0 0.0
2017-Sep-01 08:30N 38°47' E 015°33'0 0.3
2017-Sep-01 07:50N 38°47' E 015°33'0 0.7
2017-Sep-01 07:30N 38°47' E 015°33'2 3.7
2017-Sep-01 06:58N 38°48' E 015°31'510.4
2017-Sep-01 06:30N 38°51' E 015°26'510.9
2017-Sep-01 06:00N 38°55' E 015°21'610.8
2017-Sep-01 05:29N 38°58' E 015°16'2511.0
2017-Sep-01 03:15N 39°14' E 014°52'311.0
2017-Sep-01 02:59N 39°16' E 014°49'711.0
2017-Sep-01 02:21N 39°21' E 014°41'3910.8
2017-Aug-31 22:47N 39°45' E 014°03'310.8
2017-Aug-31 22:29N 39°47' E 013°59'8215.3
2017-Aug-31 17:09N 40°39' E 012°38'419.2
2017-Aug-31 16:57N 40°42' E 012°34'919.3
2017-Aug-31 16:29N 40°48' E 012°25'3819.2
2017-Aug-31 14:31N 41°12' E 011°47'519.5
2017-Aug-31 14:17N 41°15' E 011°42'3319.0
2017-Aug-31 12:31N 41°36' E 011°07'118.8
2017-Aug-31 12:28N 41°37' E 011°06'918.6
2017-Aug-31 12:00N 41°42' E 010°57'8318.1
2017-Aug-31 07:25N 42°45' E 009°44'917.7
2017-Aug-31 06:54N 42°53' E 009°39'812.4
2017-Aug-31 06:18N 43°00' E 009°36'619.3
2017-Aug-31 06:00N 43°06' E 009°39'1020.1
2017-Aug-31 05:30N 43°16' E 009°41'1020.2
2017-Aug-31 05:00N 43°26' E 009°43'1020.3
2017-Aug-31 04:30N 43°36' E 009°46'1020.2
2017-Aug-31 04:00N 43°46' E 009°48'1020.2
2017-Aug-31 03:30N 43°55' E 009°51'816.7
2017-Aug-31 03:00N 44°04' E 009°51'3 5.4
2017-Aug-31 02:30N 44°06' E 009°51'0 0.0
2017-Aug-31 02:00N 44°06' E 009°51'0 0.0
2017-Aug-31 01:30N 44°06' E 009°51'0 0.0
2017-Aug-31 01:00N 44°06' E 009°51'0 0.0
2017-Aug-31 00:30N 44°06' E 009°51'0 0.0
2017-Aug-31 00:00N 44°06' E 009°51'0 0.0
2017-Aug-30 23:27N 44°06' E 009°51'0 0.0
2017-Aug-30 23:00N 44°06' E 009°51'0 0.0
2017-Aug-30 22:27N 44°06' E 009°51'0 0.0
2017-Aug-30 22:00N 44°06' E 009°51'0 0.0
2017-Aug-30 21:30N 44°06' E 009°51'0 0.0
2017-Aug-30 21:00N 44°06' E 009°51'0 0.1
2017-Aug-30 20:30N 44°06' E 009°51'0 0.1
2017-Aug-30 20:00N 44°06' E 009°51'0 0.0
2017-Aug-30 19:30N 44°06' E 009°51'0 0.0
2017-Aug-30 19:00N 44°06' E 009°51'0 0.0
2017-Aug-30 18:30N 44°06' E 009°51'0 0.0
2017-Aug-30 18:00N 44°06' E 009°51'0 0.0
2017-Aug-30 17:30N 44°06' E 009°51'0 0.0
2017-Aug-30 17:00N 44°06' E 009°51'0 0.0
2017-Aug-30 16:30N 44°06' E 009°51'0 0.0
2017-Aug-30 16:00N 44°06' E 009°51'0 0.0
2017-Aug-30 15:26N 44°06' E 009°51'0 0.0
2017-Aug-30 15:00N 44°06' E 009°51'0 0.0
2017-Aug-30 14:30N 44°06' E 009°51'0 0.0
2017-Aug-30 14:00N 44°06' E 009°51'0 0.0
2017-Aug-30 13:30N 44°06' E 009°51'0 0.1
2017-Aug-30 13:00N 44°06' E 009°51'3 5.6
2017-Aug-30 12:30N 44°04' E 009°52'1 3.0
2017-Aug-30 12:00N 44°03' E 009°53'1 2.4
2017-Aug-30 11:30N 44°01' E 009°53'3 5.0
2017-Aug-30 11:00N 43°60' E 009°51'1 2.5
2017-Aug-30 10:30N 43°59' E 009°49'510.5
2017-Aug-30 10:00N 43°56' E 009°43'611.1
2017-Aug-30 09:30N 43°54' E 009°36'611.0
2017-Aug-30 09:00N 43°51' E 009°29'713.5
2017-Aug-30 08:31N 43°48' E 009°21'814.9
2017-Aug-30 08:00N 43°45' E 009°11'714.9
2017-Aug-30 07:30N 43°42' E 009°02'714.7
2017-Aug-30 07:01N 43°39' E 008°53'714.6
2017-Aug-30 06:30N 43°36' E 008°44'815.3
2017-Aug-30 06:01N 43°32' E 008°34'816.1
2017-Aug-30 05:30N 43°28' E 008°24'816.3
2017-Aug-30 05:00N 43°25' E 008°14'816.1
2017-Aug-30 04:30N 43°22' E 008°04'816.3
2017-Aug-30 04:00N 43°18' E 007°54'816.4
2017-Aug-30 03:31N 43°15' E 007°44'816.4
2017-Aug-30 03:01N 43°11' E 007°34'816.2
2017-Aug-30 02:31N 43°08' E 007°24'816.2
2017-Aug-30 02:01N 43°04' E 007°14'816.1
2017-Aug-30 01:31N 43°01' E 007°04'815.9
2017-Aug-30 01:00N 42°57' E 006°54'714.0
2017-Aug-30 00:31N 42°54' E 006°46'815.5
2017-Aug-30 00:00N 42°53' E 006°35'815.3
2017-Aug-29 23:31N 42°52' E 006°25'815.4
2017-Aug-29 23:00N 42°53' E 006°14'815.5
2017-Aug-29 22:31N 42°53' E 006°04'815.1
2017-Aug-29 22:00N 42°54' E 005°54'815.5
2017-Aug-29 21:31N 42°57' E 005°44'815.8
2017-Aug-29 21:00N 43°00' E 005°34'816.6
2017-Aug-29 20:30N 43°04' E 005°24'816.8
2017-Aug-29 20:00N 43°07' E 005°13'816.5
2017-Aug-29 19:30N 43°11' E 005°03'816.2
2017-Aug-29 19:00N 43°18' E 004°59'612.3
2017-Aug-29 18:31N 43°24' E 004°55'4 8.2
2017-Aug-29 18:01N 43°25' E 004°50'0 0.0
2017-Aug-29 17:30N 43°25' E 004°50'0 0.0
2017-Aug-29 17:01N 43°25' E 004°50'0 0.0
2017-Aug-29 16:31N 43°25' E 004°50'0 0.0
2017-Aug-29 16:01N 43°25' E 004°50'0 0.0
2017-Aug-29 15:30N 43°25' E 004°50'0 0.0
2017-Aug-29 15:01N 43°25' E 004°50'0 0.0
2017-Aug-29 14:31N 43°25' E 004°50'0 0.0
2017-Aug-29 14:01N 43°25' E 004°50'0 0.0
2017-Aug-29 13:30N 43°25' E 004°50'0 0.0
2017-Aug-29 13:01N 43°25' E 004°50'0 0.0
2017-Aug-29 12:31N 43°25' E 004°50'0 0.0
2017-Aug-29 12:01N 43°25' E 004°50'0 0.0
2017-Aug-29 11:31N 43°25' E 004°50'0 0.0
2017-Aug-29 11:01N 43°25' E 004°50'0 0.0
2017-Aug-29 10:30N 43°25' E 004°50'0 0.0
2017-Aug-29 10:00N 43°25' E 004°50'0 0.0
2017-Aug-29 09:31N 43°25' E 004°50'0 0.0
2017-Aug-29 09:00N 43°25' E 004°50'0 0.0
2017-Aug-29 08:30N 43°25' E 004°50'0 0.0
2017-Aug-29 08:00N 43°25' E 004°50'0 0.0
2017-Aug-29 07:30N 43°25' E 004°50'0 0.2
2017-Aug-29 07:00N 43°25' E 004°50'2 3.1
2017-Aug-29 06:31N 43°24' E 004°52'612.2
2017-Aug-29 06:00N 43°20' E 004°59'510.0
2017-Aug-29 05:30N 43°16' E 005°01'713.4
2017-Aug-29 05:00N 43°09' E 005°00'917.1
2017-Aug-29 04:30N 43°02' E 004°53'1019.1
2017-Aug-29 04:00N 42°55' E 004°46'1019.1
2017-Aug-29 03:31N 42°47' E 004°38'918.9
2017-Aug-29 03:00N 42°39' E 004°30'1019.0
2017-Aug-29 02:30N 42°32' E 004°22'919.0
2017-Aug-29 02:00N 42°24' E 004°14'1019.0
2017-Aug-29 01:30N 42°17' E 004°07'1019.1
2017-Aug-29 01:00N 42°09' E 003°59'1019.2
2017-Aug-29 00:30N 42°01' E 003°51'1019.4
2017-Aug-29 00:00N 41°54' E 003°43'1019.4
2017-Aug-28 23:30N 41°46' E 003°36'1019.4
2017-Aug-28 23:00N 41°38' E 003°28'1019.4
2017-Aug-28 22:30N 41°30' E 003°20'1019.5
2017-Aug-28 22:01N 41°22' E 003°12'1019.6
2017-Aug-28 21:30N 41°15' E 003°04'1019.4
2017-Aug-28 21:00N 41°07' E 002°57'1019.2
2017-Aug-28 20:30N 40°59' E 002°49'1019.5
2017-Aug-28 20:00N 40°51' E 002°41'1019.5
2017-Aug-28 19:30N 40°44' E 002°33'1019.9
2017-Aug-28 19:00N 40°36' E 002°26'1019.5
2017-Aug-28 18:30N 40°28' E 002°18'1019.7
2017-Aug-28 18:00N 40°20' E 002°10'1020.3
2017-Aug-28 17:30N 40°12' E 002°02'1020.3
2017-Aug-28 17:00N 40°04' E 001°54'1020.6
2017-Aug-28 16:30N 39°56' E 001°46'1020.6
2017-Aug-28 16:00N 39°47' E 001°38'1120.4
2017-Aug-28 15:29N 39°39' E 001°30'1020.2
2017-Aug-28 15:00N 39°31' E 001°22'1120.3
2017-Aug-28 14:29N 39°23' E 001°14'1020.3
2017-Aug-28 14:00N 39°15' E 001°07'1020.5
2017-Aug-28 13:30N 39°07' E 000°59'2120.4
2017-Aug-28 12:29N 38°50' E 000°43'1020.5
2017-Aug-28 12:00N 38°42' E 000°35'1020.4
2017-Aug-28 11:31N 38°34' E 000°27'1019.7
2017-Aug-28 11:00N 38°26' E 000°20'1019.8
2017-Aug-28 10:30N 38°18' E 000°12'1419.6
2017-Aug-28 09:48N 38°07' E 000°02'718.3
2017-Aug-28 09:24N 38°01' W 000°04'718.2
2017-Aug-28 09:00N 37°55' W 000°10'918.4
2017-Aug-28 08:30N 37°48' W 000°17'918.7
2017-Aug-28 08:00N 37°41' W 000°23'918.8
2017-Aug-28 07:30N 37°33' W 000°31'918.5
2017-Aug-28 07:00N 37°27' W 000°39'918.7
2017-Aug-28 06:30N 37°21' W 000°48'1019.1
2017-Aug-28 06:00N 37°14' W 000°57'1019.1
2017-Aug-28 05:30N 37°08' W 001°06'1319.0
2017-Aug-28 04:48N 36°59' W 001°18'619.1
2017-Aug-28 04:28N 36°54' W 001°24'6718.3
2017-Aug-28 00:48N 36°19' W 002°35'618.6
2017-Aug-28 00:29N 36°18' W 002°42'1818.3
2017-Aug-27 23:30N 36°16' W 003°04'1017.6
2017-Aug-27 22:56N 36°14' W 003°16'1717.5
2017-Aug-27 21:59N 36°12' W 003°37'7820.2
2017-Aug-27 18:08N 36°00' W 005°12'321.2
2017-Aug-27 18:00N 36°00' W 005°15'1020.8
2017-Aug-27 17:30N 35°57' W 005°28'12118.8
2017-Aug-27 11:04N 36°16' W 007°56'1719.3
2017-Aug-27 10:11N 36°20' W 008°16'719.5
2017-Aug-27 09:50N 36°22' W 008°24'1820.0
2017-Aug-27 08:56N 36°27' W 008°46'921.4
2017-Aug-27 08:30N 36°29' W 008°57'1121.4
2017-Aug-27 08:00N 36°32' W 009°10'1121.1
2017-Aug-27 07:30N 36°37' W 009°21'1222.0
2017-Aug-27 06:59N 36°45' W 009°31'4921.2
2017-Aug-27 04:41N 37°33' W 009°46'521.1
2017-Aug-27 04:28N 37°37' W 009°47'1121.0
2017-Aug-27 03:57N 37°47' W 009°50'1021.3
2017-Aug-27 03:30N 37°57' W 009°53'1121.7
2017-Aug-27 02:59N 38°08' W 009°57'1021.4
2017-Aug-27 02:30N 38°18' W 009°60'1121.4
2017-Aug-27 02:00N 38°28' W 010°03'1121.0
2017-Aug-27 01:30N 38°38' W 010°06'1021.0
2017-Aug-27 01:00N 38°49' W 010°07'1020.9
2017-Aug-27 00:30N 38°59' W 010°07'1121.2
2017-Aug-27 00:00N 39°10' W 010°08'1121.1
2017-Aug-26 23:30N 39°20' W 010°08'1121.3
2017-Aug-26 23:00N 39°31' W 010°07'  
Track history (hours):
 
Tides and Currents Weather Stations Pressure Air Temp Water Temp Dewpoint Dewpoint Depression Visibility Wind Speed Wind Dir Waves Ship Positions

MSC Carolina

Last reported at 2017-Sep-05 05:30 UTC. Time now 2017-Sep-19 15:34 UTC.
Position N 30°59' E 032°19'.
Warning: this ship's position is 14 days out of date.

Length 275 m; draft 13.3 m.

Type: Ship (hazmat cat B). MMSI: 371475000.

Date/timePositionNaut miles runAvg speedWind from/ knotsBaromVisibWave heightAir tempDewpointWater temp
2017-Sep-05 05:30N 30°59' E 032°19'10 9.1
2017-Sep-05 04:24N 31°09' E 032°19'4 9.3
2017-Sep-05 04:00N 31°12' E 032°20'3 6.9
2017-Sep-05 03:30N 31°16' E 032°21'4 8.1
2017-Sep-05 03:00N 31°20' E 032°23'5 9.8
2017-Sep-05 02:30N 31°24' E 032°24'4 7.1
2017-Sep-05 02:00N 31°25' E 032°20'3 3.7
2017-Sep-05 01:07N 31°24' E 032°17'0 0.0
2017-Sep-05 01:00N 31°24' E 032°17'0 0.0
2017-Sep-05 00:30N 31°24' E 032°17'0 0.0
2017-Sep-05 00:00N 31°24' E 032°17'0 0.0
2017-Sep-04 23:30N 31°24' E 032°17'0 0.0
2017-Sep-04 22:58N 31°24' E 032°17'0 0.0
2017-Sep-04 22:30N 31°24' E 032°17'0 0.0
2017-Sep-04 22:00N 31°24' E 032°17'0 0.1
2017-Sep-04 21:12N 31°24' E 032°17'7512.9
2017-Sep-04 15:22N 32°06' E 031°03'819.7
2017-Sep-04 14:58N 32°10' E 030°55'920.0
2017-Sep-04 14:30N 32°13' E 030°45'1020.2
2017-Sep-04 14:00N 32°17' E 030°34'77419.6
2017-Sep-02 22:27N 37°39' E 016°15'919.9
2017-Sep-02 21:59N 37°44' E 016°04'1519.6
2017-Sep-02 21:12N 37°49' E 015°46'419.6
2017-Sep-02 21:00N 37°51' E 015°42'918.3
2017-Sep-02 20:31N 37°57' E 015°33'1019.3
2017-Sep-02 20:01N 38°07' E 015°35'816.8
2017-Sep-02 19:30N 38°15' E 015°37'613.0
2017-Sep-02 19:00N 38°20' E 015°43'4 8.6
2017-Sep-02 18:30N 38°23' E 015°46'610.9
2017-Sep-02 18:00N 38°27' E 015°52'2 4.4
2017-Sep-02 17:30N 38°27' E 015°54'0 0.0
2017-Sep-02 17:00N 38°27' E 015°54'0 0.0
2017-Sep-02 16:31N 38°27' E 015°54'0 0.0
2017-Sep-02 16:00N 38°27' E 015°54'0 0.0
2017-Sep-02 15:30N 38°27' E 015°54'0 0.0
2017-Sep-02 15:00N 38°27' E 015°54'0 0.0
2017-Sep-02 14:30N 38°27' E 015°54'0 0.0
2017-Sep-02 14:00N 38°27' E 015°54'0 0.0
2017-Sep-02 13:30N 38°27' E 015°54'0 0.0
2017-Sep-02 13:00N 38°27' E 015°54'0 0.0
2017-Sep-02 12:30N 38°27' E 015°54'0 0.0
2017-Sep-02 12:00N 38°27' E 015°54'0 0.0
2017-Sep-02 11:30N 38°27' E 015°54'0 0.0
2017-Sep-02 11:00N 38°27' E 015°54'0 0.0
2017-Sep-02 10:30N 38°27' E 015°54'0 0.0
2017-Sep-02 10:00N 38°27' E 015°54'0 0.0
2017-Sep-02 09:30N 38°27' E 015°54'0 0.0
2017-Sep-02 09:00N 38°27' E 015°54'0 0.0
2017-Sep-02 08:30N 38°27' E 015°54'0 0.0
2017-Sep-02 08:00N 38°27' E 015°54'0 0.0
2017-Sep-02 07:30N 38°27' E 015°54'0 0.0
2017-Sep-02 07:00N 38°27' E 015°54'0 0.0
2017-Sep-02 06:30N 38°27' E 015°54'0 0.0
2017-Sep-02 06:00N 38°27' E 015°54'0 0.0
2017-Sep-02 05:30N 38°27' E 015°54'0 0.0
2017-Sep-02 05:00N 38°27' E 015°54'0 0.0
2017-Sep-02 04:30N 38°27' E 015°54'0 0.0
2017-Sep-02 04:00N 38°27' E 015°54'0 0.0
2017-Sep-02 03:30N 38°27' E 015°54'0 0.0
2017-Sep-02 03:00N 38°27' E 015°54'0 0.0
2017-Sep-02 02:30N 38°27' E 015°54'0 0.0
2017-Sep-02 02:00N 38°27' E 015°54'0 0.0
2017-Sep-02 01:31N 38°27' E 015°54'0 0.0
2017-Sep-02 01:00N 38°27' E 015°54'0 0.0
2017-Sep-02 00:30N 38°27' E 015°54'0 0.0
2017-Sep-02 00:00N 38°27' E 015°54'0 0.0
2017-Sep-01 23:30N 38°27' E 015°54'0 0.0
2017-Sep-01 23:00N 38°27' E 015°54'0 0.0
2017-Sep-01 22:30N 38°27' E 015°54'0 0.0
2017-Sep-01 22:00N 38°27' E 015°54'0 0.0
2017-Sep-01 21:30N 38°27' E 015°54'0 0.0
2017-Sep-01 17:31N 38°27' E 015°54'0 0.1
2017-Sep-01 17:26N 38°27' E 015°54'0 0.0
2017-Sep-01 16:58N 38°27' E 015°54'0 0.0
2017-Sep-01 16:30N 38°27' E 015°54'0 0.0
2017-Sep-01 15:52N 38°27' E 015°54'0 0.0
2017-Sep-01 15:28N 38°27' E 015°54'0 0.0
2017-Sep-01 14:47N 38°27' E 015°54'0 0.0
2017-Sep-01 13:51N 38°27' E 015°54'0 0.0
2017-Sep-01 13:28N 38°27' E 015°54'0 0.0
2017-Sep-01 13:00N 38°27' E 015°54'0 0.0
2017-Sep-01 12:30N 38°27' E 015°54'1 1.3
2017-Sep-01 12:00N 38°27' E 015°54'3 5.9
2017-Sep-01 11:30N 38°28' E 015°50'917.3
2017-Sep-01 11:00N 38°35' E 015°44'1120.1
2017-Sep-01 10:28N 38°44' E 015°36'4 3.1
2017-Sep-01 09:16N 38°47' E 015°33'0 0.1
2017-Sep-01 08:59N 38°47' E 015°33'0 0.0
2017-Sep-01 08:30N 38°47' E 015°33'0 0.3
2017-Sep-01 07:50N 38°47' E 015°33'0 0.7
2017-Sep-01 07:30N 38°47' E 015°33'2 3.7
2017-Sep-01 06:58N 38°48' E 015°31'510.4
2017-Sep-01 06:30N 38°51' E 015°26'510.9
2017-Sep-01 06:00N 38°55' E 015°21'610.8
2017-Sep-01 05:29N 38°58' E 015°16'2511.0
2017-Sep-01 03:15N 39°14' E 014°52'311.0
2017-Sep-01 02:59N 39°16' E 014°49'711.0
2017-Sep-01 02:21N 39°21' E 014°41'3910.8
2017-Aug-31 22:47N 39°45' E 014°03'310.8
2017-Aug-31 22:29N 39°47' E 013°59'8215.3
2017-Aug-31 17:09N 40°39' E 012°38'419.2
2017-Aug-31 16:57N 40°42' E 012°34'919.3
2017-Aug-31 16:29N 40°48' E 012°25'3819.2
2017-Aug-31 14:31N 41°12' E 011°47'519.5
2017-Aug-31 14:17N 41°15' E 011°42'3319.0
2017-Aug-31 12:31N 41°36' E 011°07'118.8
2017-Aug-31 12:28N 41°37' E 011°06'918.6
2017-Aug-31 12:00N 41°42' E 010°57'8318.1
2017-Aug-31 07:25N 42°45' E 009°44'917.7
2017-Aug-31 06:54N 42°53' E 009°39'812.4
2017-Aug-31 06:18N 43°00' E 009°36'619.3
2017-Aug-31 06:00N 43°06' E 009°39'1020.1
2017-Aug-31 05:30N 43°16' E 009°41'1020.2
2017-Aug-31 05:00N 43°26' E 009°43'1020.3
2017-Aug-31 04:30N 43°36' E 009°46'1020.2
2017-Aug-31 04:00N 43°46' E 009°48'1020.2
2017-Aug-31 03:30N 43°55' E 009°51'816.7
2017-Aug-31 03:00N 44°04' E 009°51'3 5.4
2017-Aug-31 02:30N 44°06' E 009°51'0 0.0
2017-Aug-31 02:00N 44°06' E 009°51'0 0.0
2017-Aug-31 01:30N 44°06' E 009°51'0 0.0
2017-Aug-31 01:00N 44°06' E 009°51'0 0.0
2017-Aug-31 00:30N 44°06' E 009°51'0 0.0
2017-Aug-31 00:00N 44°06' E 009°51'0 0.0
2017-Aug-30 23:27N 44°06' E 009°51'0 0.0
2017-Aug-30 23:00N 44°06' E 009°51'0 0.0
2017-Aug-30 22:27N 44°06' E 009°51'0 0.0
2017-Aug-30 22:00N 44°06' E 009°51'0 0.0
2017-Aug-30 21:30N 44°06' E 009°51'0 0.0
2017-Aug-30 21:00N 44°06' E 009°51'0 0.1
2017-Aug-30 20:30N 44°06' E 009°51'0 0.1
2017-Aug-30 20:00N 44°06' E 009°51'0 0.0
2017-Aug-30 19:30N 44°06' E 009°51'0 0.0
2017-Aug-30 19:00N 44°06' E 009°51'0 0.0
2017-Aug-30 18:30N 44°06' E 009°51'0 0.0
2017-Aug-30 18:00N 44°06' E 009°51'0 0.0
2017-Aug-30 17:30N 44°06' E 009°51'0 0.0
2017-Aug-30 17:00N 44°06' E 009°51'0 0.0
2017-Aug-30 16:30N 44°06' E 009°51'0 0.0
2017-Aug-30 16:00N 44°06' E 009°51'0 0.0
2017-Aug-30 15:26N 44°06' E 009°51'0 0.0
2017-Aug-30 15:00N 44°06' E 009°51'0 0.0
2017-Aug-30 14:30N 44°06' E 009°51'0 0.0
2017-Aug-30 14:00N 44°06' E 009°51'0 0.0
2017-Aug-30 13:30N 44°06' E 009°51'0 0.1
2017-Aug-30 13:00N 44°06' E 009°51'3 5.6
2017-Aug-30 12:30N 44°04' E 009°52'1 3.0
2017-Aug-30 12:00N 44°03' E 009°53'1 2.4
2017-Aug-30 11:30N 44°01' E 009°53'3 5.0
2017-Aug-30 11:00N 43°60' E 009°51'1 2.5
2017-Aug-30 10:30N 43°59' E 009°49'510.5
2017-Aug-30 10:00N 43°56' E 009°43'611.1
2017-Aug-30 09:30N 43°54' E 009°36'611.0
2017-Aug-30 09:00N 43°51' E 009°29'713.5
2017-Aug-30 08:31N 43°48' E 009°21'814.9
2017-Aug-30 08:00N 43°45' E 009°11'714.9
2017-Aug-30 07:30N 43°42' E 009°02'714.7
2017-Aug-30 07:01N 43°39' E 008°53'714.6
2017-Aug-30 06:30N 43°36' E 008°44'815.3
2017-Aug-30 06:01N 43°32' E 008°34'816.1
2017-Aug-30 05:30N 43°28' E 008°24'816.3
2017-Aug-30 05:00N 43°25' E 008°14'816.1
2017-Aug-30 04:30N 43°22' E 008°04'816.3
2017-Aug-30 04:00N 43°18' E 007°54'816.4
2017-Aug-30 03:31N 43°15' E 007°44'816.4
2017-Aug-30 03:01N 43°11' E 007°34'816.2
2017-Aug-30 02:31N 43°08' E 007°24'816.2
2017-Aug-30 02:01N 43°04' E 007°14'816.1
2017-Aug-30 01:31N 43°01' E 007°04'815.9
2017-Aug-30 01:00N 42°57' E 006°54'714.0
2017-Aug-30 00:31N 42°54' E 006°46'815.5
2017-Aug-30 00:00N 42°53' E 006°35'815.3
2017-Aug-29 23:31N 42°52' E 006°25'815.4
2017-Aug-29 23:00N 42°53' E 006°14'815.5
2017-Aug-29 22:31N 42°53' E 006°04'815.1
2017-Aug-29 22:00N 42°54' E 005°54'815.5
2017-Aug-29 21:31N 42°57' E 005°44'815.8
2017-Aug-29 21:00N 43°00' E 005°34'816.6
2017-Aug-29 20:30N 43°04' E 005°24'816.8
2017-Aug-29 20:00N 43°07' E 005°13'816.5
2017-Aug-29 19:30N 43°11' E 005°03'816.2
2017-Aug-29 19:00N 43°18' E 004°59'612.3
2017-Aug-29 18:31N 43°24' E 004°55'4 8.2
2017-Aug-29 18:01N 43°25' E 004°50'0 0.0
2017-Aug-29 17:30N 43°25' E 004°50'0 0.0
2017-Aug-29 17:01N 43°25' E 004°50'0 0.0
2017-Aug-29 16:31N 43°25' E 004°50'0 0.0
2017-Aug-29 16:01N 43°25' E 004°50'0 0.0
2017-Aug-29 15:30N 43°25' E 004°50'0 0.0
2017-Aug-29 15:01N 43°25' E 004°50'0 0.0
2017-Aug-29 14:31N 43°25' E 004°50'0 0.0
2017-Aug-29 14:01N 43°25' E 004°50'0 0.0
2017-Aug-29 13:30N 43°25' E 004°50'0 0.0
2017-Aug-29 13:01N 43°25' E 004°50'0 0.0
2017-Aug-29 12:31N 43°25' E 004°50'0 0.0
2017-Aug-29 12:01N 43°25' E 004°50'0 0.0
2017-Aug-29 11:31N 43°25' E 004°50'0 0.0
2017-Aug-29 11:01N 43°25' E 004°50'0 0.0
2017-Aug-29 10:30N 43°25' E 004°50'0 0.0
2017-Aug-29 10:00N 43°25' E 004°50'0 0.0
2017-Aug-29 09:31N 43°25' E 004°50'0 0.0
2017-Aug-29 09:00N 43°25' E 004°50'0 0.0
2017-Aug-29 08:30N 43°25' E 004°50'0 0.0
2017-Aug-29 08:00N 43°25' E 004°50'0 0.0
2017-Aug-29 07:30N 43°25' E 004°50'0 0.2
2017-Aug-29 07:00N 43°25' E 004°50'2 3.1
2017-Aug-29 06:31N 43°24' E 004°52'612.2
2017-Aug-29 06:00N 43°20' E 004°59'510.0
2017-Aug-29 05:30N 43°16' E 005°01'713.4
2017-Aug-29 05:00N 43°09' E 005°00'917.1
2017-Aug-29 04:30N 43°02' E 004°53'1019.1
2017-Aug-29 04:00N 42°55' E 004°46'1019.1
2017-Aug-29 03:31N 42°47' E 004°38'918.9
2017-Aug-29 03:00N 42°39' E 004°30'1019.0
2017-Aug-29 02:30N 42°32' E 004°22'919.0
2017-Aug-29 02:00N 42°24' E 004°14'1019.0
2017-Aug-29 01:30N 42°17' E 004°07'1019.1
2017-Aug-29 01:00N 42°09' E 003°59'1019.2
2017-Aug-29 00:30N 42°01' E 003°51'1019.4
2017-Aug-29 00:00N 41°54' E 003°43'1019.4
2017-Aug-28 23:30N 41°46' E 003°36'1019.4
2017-Aug-28 23:00N 41°38' E 003°28'1019.4
2017-Aug-28 22:30N 41°30' E 003°20'1019.5
2017-Aug-28 22:01N 41°22' E 003°12'1019.6
2017-Aug-28 21:30N 41°15' E 003°04'1019.4
2017-Aug-28 21:00N 41°07' E 002°57'1019.2
2017-Aug-28 20:30N 40°59' E 002°49'1019.5
2017-Aug-28 20:00N 40°51' E 002°41'1019.5
2017-Aug-28 19:30N 40°44' E 002°33'1019.9
2017-Aug-28 19:00N 40°36' E 002°26'1019.5
2017-Aug-28 18:30N 40°28' E 002°18'1019.7
2017-Aug-28 18:00N 40°20' E 002°10'1020.3
2017-Aug-28 17:30N 40°12' E 002°02'1020.3
2017-Aug-28 17:00N 40°04' E 001°54'1020.6
2017-Aug-28 16:30N 39°56' E 001°46'1020.6
2017-Aug-28 16:00N 39°47' E 001°38'1120.4
2017-Aug-28 15:29N 39°39' E 001°30'1020.2
2017-Aug-28 15:00N 39°31' E 001°22'1120.3
2017-Aug-28 14:29N 39°23' E 001°14'1020.3
2017-Aug-28 14:00N 39°15' E 001°07'1020.5
2017-Aug-28 13:30N 39°07' E 000°59'2120.4
2017-Aug-28 12:29N 38°50' E 000°43'1020.5
2017-Aug-28 12:00N 38°42' E 000°35'1020.4
2017-Aug-28 11:31N 38°34' E 000°27'1019.7
2017-Aug-28 11:00N 38°26' E 000°20'1019.8
2017-Aug-28 10:30N 38°18' E 000°12'1419.6
2017-Aug-28 09:48N 38°07' E 000°02'718.3
2017-Aug-28 09:24N 38°01' W 000°04'718.2
2017-Aug-28 09:00N 37°55' W 000°10'918.4
2017-Aug-28 08:30N 37°48' W 000°17'918.7
2017-Aug-28 08:00N 37°41' W 000°23'918.8
2017-Aug-28 07:30N 37°33' W 000°31'918.5
2017-Aug-28 07:00N 37°27' W 000°39'918.7
2017-Aug-28 06:30N 37°21' W 000°48'1019.1
2017-Aug-28 06:00N 37°14' W 000°57'1019.1
2017-Aug-28 05:30N 37°08' W 001°06'1319.0
2017-Aug-28 04:48N 36°59' W 001°18'619.1
2017-Aug-28 04:28N 36°54' W 001°24'6718.3
2017-Aug-28 00:48N 36°19' W 002°35'618.6
2017-Aug-28 00:29N 36°18' W 002°42'1818.3
2017-Aug-27 23:30N 36°16' W 003°04'1017.6
2017-Aug-27 22:56N 36°14' W 003°16'1717.5
2017-Aug-27 21:59N 36°12' W 003°37'7820.2
2017-Aug-27 18:08N 36°00' W 005°12'321.2
2017-Aug-27 18:00N 36°00' W 005°15'1020.8
2017-Aug-27 17:30N 35°57' W 005°28'12118.8
2017-Aug-27 11:04N 36°16' W 007°56'1719.3
2017-Aug-27 10:11N 36°20' W 008°16'719.5
2017-Aug-27 09:50N 36°22' W 008°24'1820.0
2017-Aug-27 08:56N 36°27' W 008°46'921.4
2017-Aug-27 08:30N 36°29' W 008°57'1121.4
2017-Aug-27 08:00N 36°32' W 009°10'1121.1
2017-Aug-27 07:30N 36°37' W 009°21'1222.0
2017-Aug-27 06:59N 36°45' W 009°31'4921.2
2017-Aug-27 04:41N 37°33' W 009°46'521.1
2017-Aug-27 04:28N 37°37' W 009°47'1121.0
2017-Aug-27 03:57N 37°47' W 009°50'1021.3
2017-Aug-27 03:30N 37°57' W 009°53'1121.7
2017-Aug-27 02:59N 38°08' W 009°57'1021.4
2017-Aug-27 02:30N 38°18' W 009°60'1121.4
2017-Aug-27 02:00N 38°28' W 010°03'1121.0
2017-Aug-27 01:30N 38°38' W 010°06'1021.0
2017-Aug-27 01:00N 38°49' W 010°07'1020.9
2017-Aug-27 00:30N 38°59' W 010°07'1121.2
2017-Aug-27 00:00N 39°10' W 010°08'1121.1
2017-Aug-26 23:30N 39°20' W 010°08'1121.3
2017-Aug-26 23:00N 39°31' W 010°07'  

Dump ship's entire track history